CheckWX is a tool to help pilots better visualize weather data.  It is not intended as a substitute for an official pre-flight weather briefing.

20:18:21 UTC

KPBX METAR
Pike County-Hatcher Field Airport
Pikeville, Kentucky, USA
Current

23 mins ago

KPBX 251955Z AUTO 27007KT 10SM SCT050 BKN060 27/16 A3008 RMK AO2 T02660162
Observed
Jun-25 @ 19:55 UTC
Wind
  • 270° at 7 KTS
Visibility
10 SM
Flight Rules
VFR
Cloud Levels
  • Scattered at 5,000' AGL
  • Broken at 6,000' AGL
Temperature
27°C / 81°F
Dewpoint
16°C / 61°F
Heat Index
28°C / 82°F
Humidity
51%
Altimeter
30.08" Hg
Pressure
1018.62 hPa
Previous

43 mins ago

KPBX 251935Z AUTO 30008KT 260V320 10SM BKN050 26/17 A3008 RMK AO2 T02610165
Observed
Jun-25 @ 19:35 UTC
Wind
  • 300° at 8 KTS
Visibility
10 SM
Flight Rules
VFR
Cloud Levels
  • Broken at 5,000' AGL
Temperature
26°C / 79°F
Dewpoint
17°C / 63°F
Humidity
58%
Altimeter
30.08" Hg
Pressure
1018.62 hPa
Previous

1 hour ago

KPBX 251915Z AUTO 27007KT 10SM SCT041 BKN050 BKN055 26/17 A3008 RMK AO2 T02610169
Observed
Jun-25 @ 19:15 UTC
Wind
  • 270° at 7 KTS
Visibility
10 SM
Flight Rules
VFR
Cloud Levels
  • Scattered at 4,100' AGL
  • Broken at 5,000' AGL
  • Broken at 5,500' AGL
Temperature
26°C / 79°F
Dewpoint
17°C / 63°F
Humidity
58%
Altimeter
30.08" Hg
Pressure
1018.62 hPa